Ottumwa Regional Airport
KOTM : now visible

Airfield :











YOU CAN JOIN US ON...

 
LOGIN :

Register | Disclaimer

   EN    FR    IT 

 









Legend :    VFR   Marginal VFR   IFR   Intensive IFR   Very Intensive IFR
Visi :
Ceiling :
>= 8 km
>= 3000ft
5 to 8 km
1000 to 3000 ft
1500m to 5 km
500 to 1000 ft
800 to 1500m
200 to 500 ft
< 800m
< 200 ft
Symbols :   Thunderstorms  Fog  Heavy snow  Heavy precipitations  Wind > 20 kt






- Airport Elevation : 845 ft
- IATA code : OTM


KOTM - Ottumwa Regional

CURRENT METAR :
  • 250353Z AUTO 18010KT 10SM CLR 30/24 A2974 RMK AO2 SLP062 T03000239

EXPIRED METARs :
  • 250253Z AUTO 18008KT 10SM CLR 30/24 A2975 RMK AO2 SLP065 T03000239 51009
  • 250153Z AUTO 17008KT 10SM CLR 31/24 A2974 RMK AO2 SLP062 T03110239
  • 250053Z AUTO 19007G17KT 10SM CLR 33/24 A2973 RMK AO2 SLP059 T03280239
  • 242353Z AUTO 18013G23KT 10SM CLR 34/24 A2972 RMK AO2 SLP054 T03390244 10350 20317 56026

TAF KOTM
Valid from the 25 at 00:00 until the 26 at 00:00 UTC


242334Z 2500/2524 18013G23KT P6SM FEW110
FM250100 19011KT P6SM FEW250
FM250600 22012G21KT P6SM FEW250 WS020/23045KT
FM251500 25012G20KT P6SM SCT230
FM252000 26011KT P6SM SCT190
KZAU FIR / North America



MET'MAP, your aeronautical weather chart ! - Copyright ORBIFLY December 2007 - Disclaimer

ORBIFLY MET'MAP TEAM :

Programming & Development : Alexandra Zaïnal
Original concept : Baudouin d'Aumeries
Technical & hardware support : Manuel Goepfert
Assistance : Marc-Olivier Méhu




SOURCES & CREDITS :

   NOAA       Earth
Advisory